Aviation Digital Data Service (ADDS)

Output produced by METARs form (2058 UTC 27 January 2015)
found at http://aviationweather.gov/adds/metars/
 
KBHB 271730Z 2718/2818 02037G43KT 1/2SM SN BLSN OVC009 
     TEMPO 2718/2722 1/4SM BLSN 
     FM280000 35023G33KT 1 1/2SM -SN BLSN OVC008 
     FM281100 34015G22KT P6SM VCSH BKN020 AMD LTD TO CLD VIS AND WIND